sensor_id;sensor_type;location;lat;lon;timestamp;pressure;altitude;pressure_sealevel;temperature
79309;BMP280;68767;53.078;7.386;2023-03-24T00:01:02;99977.81;;;11.74
79309;BMP280;68767;53.078;7.386;2023-03-24T00:03:28;99996.09;;;11.76
79309;BMP280;68767;53.078;7.386;2023-03-24T00:06:04;99979.03;;;11.77
79309;BMP280;68767;53.078;7.386;2023-03-24T00:08:33;99974.81;;;11.76
79309;BMP280;68767;53.078;7.386;2023-03-24T00:11:07;99985.34;;;11.72
79309;BMP280;68767;53.078;7.386;2023-03-24T00:13:34;99977.81;;;11.74
79309;BMP280;68767;53.078;7.386;2023-03-24T00:16:07;99956.84;;;11.73
79309;BMP280;68767;53.078;7.386;2023-03-24T00:18:35;99959.19;;;11.74
79309;BMP280;68767;53.078;7.386;2023-03-24T00:21:02;99954.50;;;11.71
79309;BMP280;68767;53.078;7.386;2023-03-24T00:23:29;99953.72;;;11.71
79309;BMP280;68767;53.078;7.386;2023-03-24T00:26:18;99949.50;;;11.70
79309;BMP280;68767;53.078;7.386;2023-03-24T00:28:45;99960.91;;;11.70
79309;BMP280;68767;53.078;7.386;2023-03-24T00:31:11;99944.97;;;11.70
79309;BMP280;68767;53.078;7.386;2023-03-24T00:33:40;99941.53;;;11.70
79309;BMP280;68767;53.078;7.386;2023-03-24T00:36:08;99943.09;;;11.71
79309;BMP280;68767;53.078;7.386;2023-03-24T00:38:38;99933.09;;;11.68
79309;BMP280;68767;53.078;7.386;2023-03-24T00:41:05;99927.00;;;11.67
79309;BMP280;68767;53.078;7.386;2023-03-24T00:43:32;99926.53;;;11.65
79309;BMP280;68767;53.078;7.386;2023-03-24T00:45:59;99916.66;;;11.66
79309;BMP280;68767;53.078;7.386;2023-03-24T00:48:26;99915.09;;;11.65
79309;BMP280;68767;53.078;7.386;2023-03-24T00:50:52;99911.19;;;11.62
79309;BMP280;68767;53.078;7.386;2023-03-24T00:53:18;99906.66;;;11.63
79309;BMP280;68767;53.078;7.386;2023-03-24T00:55:45;99895.22;;;11.62
79309;BMP280;68767;53.078;7.386;2023-03-24T00:58:17;99900.88;;;11.61
79309;BMP280;68767;53.078;7.386;2023-03-24T01:00:49;99891.78;;;11.62
79309;BMP280;68767;53.078;7.386;2023-03-24T01:03:15;99886.78;;;11.60
79309;BMP280;68767;53.078;7.386;2023-03-24T01:05:41;99872.72;;;11.60
79309;BMP280;68767;53.078;7.386;2023-03-24T01:08:07;99875.03;;;11.61
79309;BMP280;68767;53.078;7.386;2023-03-24T01:10:37;99876.50;;;11.59
79309;BMP280;68767;53.078;7.386;2023-03-24T01:13:16;99866.63;;;11.59
79309;BMP280;68767;53.078;7.386;2023-03-24T01:15:41;99858.31;;;11.61
79309;BMP280;68767;53.078;7.386;2023-03-24T01:18:07;99859.88;;;11.62
79309;BMP280;68767;53.078;7.386;2023-03-24T01:20:34;99853.75;;;11.61
79309;BMP280;68767;53.078;7.386;2023-03-24T01:23:02;99853.34;;;11.59
79309;BMP280;68767;53.078;7.386;2023-03-24T01:25:29;99845.34;;;11.59
79309;BMP280;68767;53.078;7.386;2023-03-24T01:27:55;99841.91;;;11.59
79309;BMP280;68767;53.078;7.386;2023-03-24T01:30:23;99844.22;;;11.60
79309;BMP280;68767;53.078;7.386;2023-03-24T01:32:50;99845.00;;;11.61
79309;BMP280;68767;53.078;7.386;2023-03-24T01:35:16;99829.50;;;11.63
79309;BMP280;68767;53.078;7.386;2023-03-24T01:37:42;99827.31;;;11.65
79309;BMP280;68767;53.078;7.386;2023-03-24T01:40:17;99821.22;;;11.64
79309;BMP280;68767;53.078;7.386;2023-03-24T01:42:42;99822.31;;;11.63
79309;BMP280;68767;53.078;7.386;2023-03-24T01:48:17;99793.06;;;11.63
79309;BMP280;68767;53.078;7.386;2023-03-24T01:50:51;99793.84;;;11.64
79309;BMP280;68767;53.078;7.386;2023-03-24T01:53:19;99797.28;;;11.64
79309;BMP280;68767;53.078;7.386;2023-03-24T01:55:46;99786.44;;;11.69
79309;BMP280;68767;53.078;7.386;2023-03-24T01:58:12;99777.25;;;11.67
79309;BMP280;68767;53.078;7.386;2023-03-24T02:00:37;99787.09;;;11.66
79309;BMP280;68767;53.078;7.386;2023-03-24T02:03:08;99768.91;;;11.68
79309;BMP280;68767;53.078;7.386;2023-03-24T02:05:38;99762.84;;;11.68
79309;BMP280;68767;53.078;7.386;2023-03-24T02:08:17;99769.38;;;11.70
79309;BMP280;68767;53.078;7.386;2023-03-24T02:10:43;99757.16;;;11.69
79309;BMP280;68767;53.078;7.386;2023-03-24T02:13:09;99751.84;;;11.69
79309;BMP280;68767;53.078;7.386;2023-03-24T02:15:44;99739.00;;;11.71
79309;BMP280;68767;53.078;7.386;2023-03-24T02:18:53;99742.44;;;11.72
79309;BMP280;68767;53.078;7.386;2023-03-24T02:37:58;99711.31;;;11.72
79309;BMP280;68767;53.078;7.386;2023-03-24T02:49:01;99679.00;;;11.82
79309;BMP280;68767;53.078;7.386;2023-03-24T02:51:56;99685.84;;;11.83
79309;BMP280;68767;53.078;7.386;2023-03-24T02:54:27;99677.09;;;11.83
79309;BMP280;68767;53.078;7.386;2023-03-24T02:57:03;99668.91;;;11.88
79309;BMP280;68767;53.078;7.386;2023-03-24T02:59:35;99670.81;;;11.88
79309;BMP280;68767;53.078;7.386;2023-03-24T03:02:15;99661.38;;;11.90
79309;BMP280;68767;53.078;7.386;2023-03-24T03:04:50;99655.72;;;11.92
79309;BMP280;68767;53.078;7.386;2023-03-24T03:07:28;99656.50;;;11.92
79309;BMP280;68767;53.078;7.386;2023-03-24T03:10:10;99648.06;;;11.90
79309;BMP280;68767;53.078;7.386;2023-03-24T03:12:38;99646.41;;;11.98
79309;BMP280;68767;53.078;7.386;2023-03-24T03:15:11;99638.88;;;12.00
79309;BMP280;68767;53.078;7.386;2023-03-24T03:17:41;99644.88;;;11.97
79309;BMP280;68767;53.078;7.386;2023-03-24T03:20:17;99636.38;;;12.03
79309;BMP280;68767;53.078;7.386;2023-03-24T03:22:50;99637.34;;;11.99
79309;BMP280;68767;53.078;7.386;2023-03-24T03:25:21;99628.69;;;12.02
79309;BMP280;68767;53.078;7.386;2023-03-24T03:27:48;99626.81;;;12.02
79309;BMP280;68767;53.078;7.386;2023-03-24T03:30:18;99620.81;;;12.05
79309;BMP280;68767;53.078;7.386;2023-03-24T03:33:00;99619.25;;;12.04
79309;BMP280;68767;53.078;7.386;2023-03-24T03:36:03;99618.63;;;12.07
79309;BMP280;68767;53.078;7.386;2023-03-24T03:41:03;99608.28;;;12.06
79309;BMP280;68767;53.078;7.386;2023-03-24T03:43:30;99613.63;;;12.06
79309;BMP280;68767;53.078;7.386;2023-03-24T03:45:58;99617.84;;;12.07
79309;BMP280;68767;53.078;7.386;2023-03-24T03:48:24;99611.41;;;12.08
79309;BMP280;68767;53.078;7.386;2023-03-24T03:50:51;99604.66;;;12.10
79309;BMP280;68767;53.078;7.386;2023-03-24T03:53:19;99605.06;;;12.12
79309;BMP280;68767;53.078;7.386;2023-03-24T03:55:47;99607.38;;;12.14
79309;BMP280;68767;53.078;7.386;2023-03-24T03:58:13;99611.94;;;12.13
79309;BMP280;68767;53.078;7.386;2023-03-24T04:00:39;99606.41;;;12.18
79309;BMP280;68767;53.078;7.386;2023-03-24T04:20:16;99623.81;;;12.16
79309;BMP280;68767;53.078;7.386;2023-03-24T04:25:50;99634.56;;;12.19
79309;BMP280;68767;53.078;7.386;2023-03-24T04:28:31;99626.94;;;12.18
79309;BMP280;68767;53.078;7.386;2023-03-24T04:31:03;99647.78;;;12.16
79309;BMP280;68767;53.078;7.386;2023-03-24T04:38:47;99682.56;;;11.99
79309;BMP280;68767;53.078;7.386;2023-03-24T04:41:18;99683.56;;;11.94
79309;BMP280;68767;53.078;7.386;2023-03-24T04:43:46;99707.38;;;11.91
79309;BMP280;68767;53.078;7.386;2023-03-24T04:46:12;99715.91;;;11.84
79309;BMP280;68767;53.078;7.386;2023-03-24T04:48:42;99737.72;;;11.77
79309;BMP280;68767;53.078;7.386;2023-03-24T04:51:09;99743.88;;;11.69
79309;BMP280;68767;53.078;7.386;2023-03-24T04:53:35;99742.19;;;11.65
79309;BMP280;68767;53.078;7.386;2023-03-24T04:58:52;99756.19;;;11.53
79309;BMP280;68767;53.078;7.386;2023-03-24T05:01:18;99761.69;;;11.48
79309;BMP280;68767;53.078;7.386;2023-03-24T05:03:46;99755.16;;;11.46
79309;BMP280;68767;53.078;7.386;2023-03-24T05:06:11;99762.22;;;11.41
79309;BMP280;68767;53.078;7.386;2023-03-24T05:08:37;99775.69;;;11.36
79309;BMP280;68767;53.078;7.386;2023-03-24T05:11:04;99779.78;;;11.34
79309;BMP280;68767;53.078;7.386;2023-03-24T05:13:29;99780.88;;;11.33
79309;BMP280;68767;53.078;7.386;2023-03-24T05:15:54;99775.88;;;11.31
79309;BMP280;68767;53.078;7.386;2023-03-24T05:18:20;99794.34;;;11.28
79309;BMP280;68767;53.078;7.386;2023-03-24T05:20:45;99790.75;;;11.24
79309;BMP280;68767;53.078;7.386;2023-03-24T05:23:11;99795.94;;;11.20
79309;BMP280;68767;53.078;7.386;2023-03-24T05:25:36;99806.44;;;11.17
79309;BMP280;68767;53.078;7.386;2023-03-24T05:28:02;99808.66;;;11.15
79309;BMP280;68767;53.078;7.386;2023-03-24T05:30:27;99817.25;;;11.12
79309;BMP280;68767;53.078;7.386;2023-03-24T05:32:52;99821.31;;;11.09
79309;BMP280;68767;53.078;7.386;2023-03-24T05:35:18;99826.50;;;11.06
79309;BMP280;68767;53.078;7.386;2023-03-24T05:37:43;99834.47;;;11.06
79309;BMP280;68767;53.078;7.386;2023-03-24T05:40:09;99834.00;;;11.03
79309;BMP280;68767;53.078;7.386;2023-03-24T05:42:35;99841.66;;;11.05
79309;BMP280;68767;53.078;7.386;2023-03-24T05:45:00;99846.50;;;11.03
79309;BMP280;68767;53.078;7.386;2023-03-24T05:47:26;99848.25;;;10.99
79309;BMP280;68767;53.078;7.386;2023-03-24T05:49:51;99853.41;;;10.95
79309;BMP280;68767;53.078;7.386;2023-03-24T05:52:17;99861.38;;;10.95
79309;BMP280;68767;53.078;7.386;2023-03-24T05:54:44;99872.50;;;10.89
79309;BMP280;68767;53.078;7.386;2023-03-24T05:57:14;99874.38;;;10.88
79309;BMP280;68767;53.078;7.386;2023-03-24T05:59:40;99880.78;;;10.87
79309;BMP280;68767;53.078;7.386;2023-03-24T06:02:06;99880.00;;;10.87
79309;BMP280;68767;53.078;7.386;2023-03-24T06:04:32;99875.00;;;10.85
79309;BMP280;68767;53.078;7.386;2023-03-24T06:06:58;99877.97;;;10.84
79309;BMP280;68767;53.078;7.386;2023-03-24T06:09:30;99886.41;;;10.86
79309;BMP280;68767;53.078;7.386;2023-03-24T06:12:03;99877.81;;;10.80
79309;BMP280;68767;53.078;7.386;2023-03-24T06:14:28;99886.88;;;10.79
79309;BMP280;68767;53.078;7.386;2023-03-24T06:16:54;99879.22;;;10.78
79309;BMP280;68767;53.078;7.386;2023-03-24T06:19:24;99882.19;;;10.76
79309;BMP280;68767;53.078;7.386;2023-03-24T06:21:49;99893.16;;;10.75
79309;BMP280;68767;53.078;7.386;2023-03-24T06:24:16;99890.00;;;10.81
79309;BMP280;68767;53.078;7.386;2023-03-24T06:26:41;99902.03;;;10.79
79309;BMP280;68767;53.078;7.386;2023-03-24T06:29:09;99908.91;;;10.80
79309;BMP280;68767;53.078;7.386;2023-03-24T06:31:34;99926.91;;;10.74
79309;BMP280;68767;53.078;7.386;2023-03-24T06:34:02;99921.88;;;10.73
79309;BMP280;68767;53.078;7.386;2023-03-24T06:36:28;99920.94;;;10.69
79309;BMP280;68767;53.078;7.386;2023-03-24T06:38:53;99933.13;;;10.70
79309;BMP280;68767;53.078;7.386;2023-03-24T06:41:18;99936.25;;;10.72
79309;BMP280;68767;53.078;7.386;2023-03-24T06:43:44;99940.97;;;10.66
79309;BMP280;68767;53.078;7.386;2023-03-24T06:46:10;99947.06;;;10.67
79309;BMP280;68767;53.078;7.386;2023-03-24T06:48:35;99953.16;;;10.67
79309;BMP280;68767;53.078;7.386;2023-03-24T06:51:01;99955.81;;;10.67
79309;BMP280;68767;53.078;7.386;2023-03-24T06:53:26;99960.00;;;10.68
79309;BMP280;68767;53.078;7.386;2023-03-24T06:55:52;99969.88;;;10.68
79309;BMP280;68767;53.078;7.386;2023-03-24T06:58:17;99963.00;;;10.67
79309;BMP280;68767;53.078;7.386;2023-03-24T07:00:44;99966.09;;;10.69
79309;BMP280;68767;53.078;7.386;2023-03-24T07:03:11;99976.72;;;10.69
79309;BMP280;68767;53.078;7.386;2023-03-24T07:05:43;99974.06;;;10.69
79309;BMP280;68767;53.078;7.386;2023-03-24T07:08:09;99986.25;;;10.70
79309;BMP280;68767;53.078;7.386;2023-03-24T07:10:37;99991.75;;;10.73
79309;BMP280;68767;53.078;7.386;2023-03-24T07:13:04;99988.31;;;10.73
79309;BMP280;68767;53.078;7.386;2023-03-24T07:15:30;99984.06;;;10.72
79309;BMP280;68767;53.078;7.386;2023-03-24T07:17:55;99993.59;;;10.73
79309;BMP280;68767;53.078;7.386;2023-03-24T07:20:21;99998.75;;;10.78
79309;BMP280;68767;53.078;7.386;2023-03-24T07:22:46;99998.28;;;10.76
79309;BMP280;68767;53.078;7.386;2023-03-24T07:25:12;100000.63;;;10.77
79309;BMP280;68767;53.078;7.386;2023-03-24T07:27:39;100002.97;;;10.79
79309;BMP280;68767;53.078;7.386;2023-03-24T07:30:05;100020.50;;;10.80
79309;BMP280;68767;53.078;7.386;2023-03-24T07:32:31;100015.78;;;10.77
79309;BMP280;68767;53.078;7.386;2023-03-24T07:35:07;100009.25;;;10.83
79309;BMP280;68767;53.078;7.386;2023-03-24T07:37:32;100018.16;;;10.87
79309;BMP280;68767;53.078;7.386;2023-03-24T07:39:57;100015.50;;;10.87
79309;BMP280;68767;53.078;7.386;2023-03-24T07:42:23;100021.91;;;10.86
79309;BMP280;68767;53.078;7.386;2023-03-24T07:44:49;100019.25;;;10.86
79309;BMP280;68767;53.078;7.386;2023-03-24T07:47:15;100025.97;;;10.83
79309;BMP280;68767;53.078;7.386;2023-03-24T07:49:41;100025.63;;;10.85
79309;BMP280;68767;53.078;7.386;2023-03-24T07:52:07;100037.06;;;10.85
79309;BMP280;68767;53.078;7.386;2023-03-24T07:54:32;100030.66;;;10.86
79309;BMP280;68767;53.078;7.386;2023-03-24T07:56:58;100030.50;;;10.91
79309;BMP280;68767;53.078;7.386;2023-03-24T07:59:24;100029.25;;;10.89
79309;BMP280;68767;53.078;7.386;2023-03-24T08:01:50;100040.19;;;10.87
79309;BMP280;68767;53.078;7.386;2023-03-24T08:04:15;100038.00;;;10.89
79309;BMP280;68767;53.078;7.386;2023-03-24T08:06:44;100034.56;;;10.89
79309;BMP280;68767;53.078;7.386;2023-03-24T08:09:10;100039.09;;;10.88
79309;BMP280;68767;53.078;7.386;2023-03-24T08:11:36;100045.19;;;10.89
79309;BMP280;68767;53.078;7.386;2023-03-24T08:14:02;100045.97;;;10.89
79309;BMP280;68767;53.078;7.386;2023-03-24T08:16:27;100051.13;;;10.94
79309;BMP280;68767;53.078;7.386;2023-03-24T08:18:53;100060.22;;;11.02
79309;BMP280;68767;53.078;7.386;2023-03-24T08:21:22;100057.72;;;10.97
79309;BMP280;68767;53.078;7.386;2023-03-24T08:23:48;100066.00;;;10.95
79309;BMP280;68767;53.078;7.386;2023-03-24T08:26:13;100071.78;;;10.97
79309;BMP280;68767;53.078;7.386;2023-03-24T08:28:39;100075.84;;;11.03
79309;BMP280;68767;53.078;7.386;2023-03-24T08:31:05;100073.97;;;11.04
79309;BMP280;68767;53.078;7.386;2023-03-24T08:33:31;100069.28;;;11.10
79309;BMP280;68767;53.078;7.386;2023-03-24T08:35:56;100070.84;;;11.11
79309;BMP280;68767;53.078;7.386;2023-03-24T08:38:23;100072.56;;;11.15
79309;BMP280;68767;53.078;7.386;2023-03-24T08:40:56;100072.13;;;11.22
79309;BMP280;68767;53.078;7.386;2023-03-24T08:43:22;100080.53;;;11.32
79309;BMP280;68767;53.078;7.386;2023-03-24T08:45:48;100086.63;;;11.41
79309;BMP280;68767;53.078;7.386;2023-03-24T08:48:14;100092.44;;;11.43
79309;BMP280;68767;53.078;7.386;2023-03-24T08:50:40;100097.75;;;11.43
79309;BMP280;68767;53.078;7.386;2023-03-24T08:53:06;100098.06;;;11.33
79309;BMP280;68767;53.078;7.386;2023-03-24T08:55:32;100096.34;;;11.37
79309;BMP280;68767;53.078;7.386;2023-03-24T08:57:58;100098.06;;;11.42
79309;BMP280;68767;53.078;7.386;2023-03-24T09:00:24;100095.53;;;11.63
79309;BMP280;68767;53.078;7.386;2023-03-24T09:02:52;100101.75;;;11.75
79309;BMP280;68767;53.078;7.386;2023-03-24T09:05:19;100098.47;;;11.78
79309;BMP280;68767;53.078;7.386;2023-03-24T09:07:46;100100.84;;;11.71
79309;BMP280;68767;53.078;7.386;2023-03-24T09:10:12;100097.22;;;11.76
79309;BMP280;68767;53.078;7.386;2023-03-24T09:12:38;100099.75;;;11.72
79309;BMP280;68767;53.078;7.386;2023-03-24T09:15:06;100101.63;;;11.72
79309;BMP280;68767;53.078;7.386;2023-03-24T09:17:33;100095.34;;;11.76
79309;BMP280;68767;53.078;7.386;2023-03-24T09:19:58;100100.53;;;11.73
79309;BMP280;68767;53.078;7.386;2023-03-24T09:22:24;100101.94;;;11.70
79309;BMP280;68767;53.078;7.386;2023-03-24T09:24:50;100120.09;;;11.68
79309;BMP280;68767;53.078;7.386;2023-03-24T09:27:16;100114.94;;;11.72
79309;BMP280;68767;53.078;7.386;2023-03-24T09:29:41;100112.72;;;11.82
